Latest Weather Observations for Portland Airport

IDV60801

Issued at 9:35 am EST Thursday 24 April 2014 (issued every 30 minutes, with the page automatically refreshed every 10 minutes)

About weather observations | Map of weather stations | Latest weather observations for VIC | Other Formats
Station Details ID: 090171 Name: CASHMORE AIRPORT Lat: -38.31 Lon: 141.47 Height: 80.9 m
Data from the previous 72 hours. | See also: Recent months at Portland Airport
Date/Time
EST
Temp
°C
App
Temp
°C
Dew
Point
Rel
Hum
%
Delta-T
°C
Wind Press
QNH
hPa
Press
MSL
hPa
Rain
since 9 am
mm
Dir
 
Spd
km/h
Gust
km/h
Spd
kts
Gust
kts
24/09:30am 13.1 8.2 5.0 58 3.8 SW 20 30 11 16 1017.5 - 0.0
24/09:00am 13.1 8.6 4.0 54 4.1 SW 17 26 9 14 1017.1 1017.1 6.8
24/08:30am 12.3 7.1 2.5 51 4.3 SW 19 30 10 16 1016.7 - 6.8
24/08:00am 12.1 6.5 3.3 55 3.9 SW 22 32 12 17 1015.9 - 6.8
24/07:30am 11.6 5.6 3.1 56 3.7 SW 24 35 13 19 1015.2 - 6.8
24/07:00am 12.3 6.2 4.8 60 3.4 SW 26 46 14 25 1014.6 - 6.8
24/06:30am 12.2 6.6 5.4 63 3.2 WSW 24 39 13 21 1013.9 - 6.8
24/06:00am 12.1 6.5 5.3 63 3.2 SW 24 33 13 18 1013.4 1013.3 6.8
24/05:30am 12.4 6.5 7.5 72 2.4 SW 28 41 15 22 1012.5 - 6.8
24/05:00am 12.6 7.6 8.1 74 2.2 SW 24 35 13 19 1011.8 - 6.8
24/04:30am 12.6 7.8 8.9 78 1.9 SW 24 35 13 19 1011.1 - 6.8
24/04:03am 12.7 7.2 10.4 86 1.2 SW 30 48 16 26 1010.6 - 6.8
24/04:00am 12.9 7.4 10.6 86 1.2 SW 30 48 16 26 1010.5 - 6.8
24/03:57am 12.9 7.9 11.1 89 0.9 SW 28 48 15 26 1010.4 - 6.8
24/03:50am 12.7 7.8 11.3 91 0.7 SW 28 46 15 25 1010.3 - 6.8
24/03:30am 13.4 8.9 12.6 95 0.4 W 28 41 15 22 1009.5 - 5.6
24/03:10am 13.7 9.3 12.8 94 0.5 W 28 48 15 26 1009.6 - 4.4
24/03:08am 13.8 9.7 12.7 93 0.6 W 26 35 14 19 1009.5 - 3.8
24/03:00am 13.9 9.0 12.6 92 0.7 WNW 30 46 16 25 1009.0 1009.0 2.2
24/02:58am 13.9 8.4 12.6 92 0.7 NW 33 56 18 30 1008.9 - 1.8
24/02:33am 14.3 8.5 12.7 90 0.9 NW 35 56 19 30 1008.9 - 1.0
24/02:31am 14.4 8.9 12.6 89 1.0 NW 33 50 18 27 1009.0 - 0.4
24/02:30am 14.4 8.9 12.6 89 1.0 NW 33 50 18 27 1009.0 - 0.4
24/02:19am 14.5 9.9 12.2 86 1.3 NW 28 46 15 25 1008.8 - 0.2
24/02:00am 14.0 9.7 11.9 87 1.1 NW 26 41 14 22 1009.0 - 0.2
24/01:30am 13.9 9.5 11.6 86 1.2 NW 26 35 14 19 1009.2 - 0.2
24/01:00am 13.6 9.1 11.3 86 1.2 NNW 26 37 14 20 1009.5 - 0.2
24/12:30am 13.4 9.1 10.9 85 1.3 NNW 24 37 13 20 1009.8 - 0.2
24/12:00am 13.8 9.7 11.3 85 1.3 NW 24 37 13 20 1010.0 1010.0 0.2
 
Date/Time
EST
Temp
°C
App
Temp
°C
Dew
Point
Rel
Hum
%
Delta-T
°C
Wind Press
QNH
hPa
Press
MSL
hPa
Rain
since 9 am
mm
Dir
 
Spd
km/h
Gust
km/h
Spd
kts
Gust
kts
23/11:30pm 12.7 9.0 10.2 85 1.3 NW 20 30 11 16 1010.5 - 0.2
23/11:03pm 12.2 9.4 10.1 87 1.1 NNW 15 20 8 11 1010.7 - 0.2
23/11:00pm 12.1 9.4 10.2 88 1.0 NNW 15 20 8 11 1010.7 - 0.2
23/10:47pm 12.0 9.3 10.4 90 0.8 NNW 15 24 8 13 1011.0 - 0.2
23/10:30pm 11.8 8.8 10.5 92 0.7 NNW 17 22 9 12 1011.2 - 0.0
23/10:06pm 12.8 8.1 10.7 87 1.1 NW 26 39 14 21 1011.6 - 0.0
23/10:00pm 13.3 8.6 10.5 83 1.5 NNW 26 37 14 20 1011.5 - 0.0
23/09:30pm 13.9 9.5 8.9 72 2.5 NNW 22 33 12 18 1011.5 - 0.0
23/09:00pm 13.1 9.9 8.4 73 2.4 NNW 15 24 8 13 1011.5 1011.5 0.0
23/08:30pm 13.5 9.8 7.9 69 2.8 NNW 17 30 9 16 1011.6 - 0.0
23/08:00pm 14.3 10.0 8.0 66 3.1 NW 20 30 11 16 1012.1 - 0.0
23/07:30pm 14.2 10.0 7.5 64 3.3 NW 19 30 10 16 1012.2 - 0.0
23/07:00pm 13.4 9.7 6.5 63 3.3 NW 15 22 8 12 1012.2 - 0.0
23/06:30pm 13.0 9.9 5.7 61 3.4 NNW 11 17 6 9 1012.0 - 0.0
23/06:00pm 14.3 11.2 7.4 63 3.4 NNW 13 19 7 10 1011.9 1011.9 0.0
23/05:30pm 15.4 13.1 9.1 66 3.2 NW 11 17 6 9 1011.9 - 0.0
23/05:00pm 16.1 12.9 9.8 66 3.3 WNW 17 24 9 13 1011.9 - 0.0
23/04:30pm 16.1 12.7 9.1 63 3.6 WNW 17 22 9 12 1012.0 - 0.0
23/04:00pm 16.9 12.8 8.6 58 4.3 NW 20 30 11 16 1012.1 - 0.0
23/03:30pm 17.3 13.5 9.7 61 4.0 WNW 20 28 11 15 1012.4 - 0.0
23/03:00pm 17.3 12.6 9.2 59 4.2 WNW 24 35 13 19 1012.6 1012.6 0.0
23/02:30pm 17.4 12.8 9.8 61 4.0 NW 24 35 13 19 1013.0 - 0.0
23/02:00pm 16.1 11.8 9.5 65 3.4 NW 22 35 12 19 1013.5 - 0.0
23/01:30pm 17.0 12.5 10.1 64 3.7 NNW 24 39 13 21 1013.6 - 0.0
23/01:00pm 15.7 11.1 9.6 67 3.2 NW 24 41 13 22 1014.1 - 0.0
23/12:30pm 16.3 12.3 10.4 68 3.1 NNW 22 32 12 17 1014.8 - 0.0
23/12:00pm 15.4 10.9 8.6 64 3.5 NNW 22 35 12 19 1015.1 1015.1 0.0
23/11:30am 15.1 11.4 9.5 69 2.9 NNW 19 28 10 15 1015.5 - 0.0
23/11:00am 13.9 10.2 10.1 78 2.0 N 20 26 11 14 1015.8 - 0.0
23/10:30am 12.8 9.8 10.5 86 1.2 N 17 22 9 12 1016.2 - 0.0
23/10:00am 12.4 9.6 10.1 86 1.2 N 15 20 8 11 1016.6 - 0.0
23/09:30am 12.4 10.2 12.1 98 0.2 NNW 15 20 8 11 1016.8 - 0.0
23/09:00am 11.8 9.8 11.6 99 0.1 NNW 13 19 7 10 1016.9 1016.9 0.4
23/08:30am 10.7 8.4 10.5 99 0.1 NNW 13 19 7 10 1016.7 - 0.2
23/08:00am 9.0 6.7 8.9 99 0.0 N 11 15 6 8 1016.6 - 0.2
23/07:30am 8.3 5.8 8.2 99 0.0 N 11 13 6 7 1016.4 - 0.2
23/07:00am 7.8 5.2 7.7 99 0.0 N 11 13 6 7 1015.9 - 0.2
23/06:30am 8.0 5.4 7.9 99 0.0 N 11 13 6 7 1016.3 - 0.2
23/06:00am 7.5 4.4 7.4 99 0.0 N 13 15 7 8 1016.4 1016.4 0.2
23/05:30am 7.2 4.4 7.1 99 0.0 N 11 13 6 7 1016.5 - 0.2
23/05:00am 6.7 4.6 6.6 99 0.0 NNW 7 9 4 5 1016.4 - 0.2
23/04:30am 6.7 4.8 6.6 99 0.0 NNW 6 7 3 4 1016.4 - 0.2
23/04:00am 7.1 4.7 7.0 99 0.0 N 9 11 5 6 1016.1 - 0.2
23/03:43am 7.3 4.6 7.2 99 0.0 N 11 13 6 7 1015.9 - 0.2
23/03:30am 7.6 4.6 7.5 99 0.0 N 13 15 7 8 1015.9 - 0.2
23/03:06am 8.3 5.8 8.2 99 0.0 N 11 15 6 8 1016.1 - 0.2
23/03:00am 8.4 6.3 8.3 99 0.0 N 9 13 5 7 1016.2 1016.2 0.2
23/02:30am 8.5 6.4 8.2 98 0.1 N 9 11 5 6 1016.6 - 0.2
23/02:00am 8.9 7.2 8.5 97 0.2 N 7 9 4 5 1016.8 - 0.2
23/01:30am 9.1 6.7 8.5 96 0.3 N 11 13 6 7 1017.2 - 0.2
23/01:00am 9.8 7.6 9.2 96 0.3 N 11 15 6 8 1017.3 - 0.2
23/12:30am 10.6 8.5 9.8 95 0.4 N 11 13 6 7 1017.5 - 0.2
23/12:00am 10.9 8.5 10.0 94 0.5 NNW 13 15 7 8 1017.8 1017.8 0.2
 
Date/Time
EST
Temp
°C
App
Temp
°C
Dew
Point
Rel
Hum
%
Delta-T
°C
Wind Press
QNH
hPa
Press
MSL
hPa
Rain
since 9 am
mm
Dir
 
Spd
km/h
Gust
km/h
Spd
kts
Gust
kts
22/11:30pm 10.7 8.6 9.6 93 0.6 NNW 11 13 6 7 1017.7 - 0.2
22/11:02pm 11.3 10.2 10.0 92 0.7 W 6 7 3 4 1017.9 - 0.2
22/11:00pm 11.4 10.3 10.1 92 0.7 W 6 7 3 4 1017.9 - 0.2
22/10:48pm 11.6 8.9 10.3 92 0.7 W 15 20 8 11 1018.1 - 0.2
22/10:30pm 9.9 8.4 8.5 91 0.7 W 6 7 3 4 1018.2 - 0.0
22/10:00pm 10.2 9.2 8.8 91 0.7 W 4 7 2 4 1018.2 - 0.0
22/09:30pm 9.4 7.6 8.0 91 0.7 SW 7 9 4 5 1018.1 - 0.0
22/09:00pm 9.1 7.2 7.5 90 0.8 SW 7 7 4 4 1017.9 1017.9 0.0
22/08:30pm 9.1 7.4 7.4 89 0.8 SW 6 7 3 4 1017.9 - 0.0
22/08:00pm 9.2 7.2 7.3 88 0.9 SW 7 7 4 4 1017.8 - 0.0
22/07:30pm 9.4 7.4 7.2 86 1.0 SW 7 9 4 5 1017.6 - 0.0
22/07:00pm 10.3 8.4 7.7 84 1.3 SW 7 7 4 4 1017.4 - 0.0
22/06:30pm 11.1 9.5 7.8 80 1.6 SW 6 7 3 4 1017.0 - 0.0
22/06:00pm 12.8 10.8 8.7 76 2.1 SW 9 11 5 6 1016.8 1016.8 0.0
22/05:30pm 14.0 11.4 9.2 73 2.5 WSW 13 17 7 9 1016.6 - 0.0
22/05:00pm 15.3 12.6 10.3 72 2.6 W 15 20 8 11 1016.4 - 0.0
22/04:30pm 15.4 11.9 10.2 71 2.7 W 19 26 10 14 1016.2 - 0.0
22/04:00pm 15.2 11.7 10.2 72 2.6 W 19 26 10 14 1016.1 - 0.0
22/03:30pm 15.7 13.0 10.2 70 2.9 W 15 22 8 12 1015.9 - 0.0
22/03:00pm 16.3 13.1 9.9 66 3.4 WSW 17 28 9 15 1015.7 1015.7 0.0
22/02:30pm 15.7 12.4 9.6 67 3.2 W 17 24 9 13 1015.5 - 0.0
22/02:00pm 15.5 12.3 10.1 70 2.8 W 17 20 9 11 1015.6 - 0.0
22/01:30pm 15.6 12.3 9.5 67 3.2 WSW 17 24 9 13 1015.6 - 0.0
22/01:00pm 16.0 13.2 10.1 68 3.1 WSW 15 22 8 12 1015.6 - 0.0
22/12:30pm 16.8 13.5 10.9 68 3.2 W 19 28 10 15 1015.9 - 0.0
22/12:00pm 16.3 12.9 10.4 68 3.1 W 19 26 10 14 1016.0 1016.0 0.0
22/11:30am 16.6 13.3 10.9 69 3.1 W 19 26 10 14 1015.9 - 0.0
22/11:00am 16.4 14.4 11.6 73 2.6 WSW 13 19 7 10 1015.9 - 0.0
22/10:30am 15.5 13.3 10.7 73 2.6 SSW 13 22 7 12 1015.7 - 0.0
22/10:00am 15.3 13.2 11.1 76 2.2 SSW 13 20 7 11 1015.5 - 0.0
22/09:30am 15.2 13.4 12.1 82 1.7 SW 13 19 7 10 1015.2 - 0.0
22/09:00am 14.6 13.4 12.8 89 1.0 SW 11 17 6 9 1014.9 1014.8 10.4
22/08:30am 14.2 12.7 13.1 93 0.6 SW 13 17 7 9 1014.6 - 10.4
22/08:00am 13.8 13.4 13.0 95 0.4 WSW 7 9 4 5 1014.3 - 10.4
22/07:30am 13.2 12.6 12.4 95 0.4 WSW 7 11 4 6 1013.8 - 10.4
22/07:00am 13.6 12.4 12.8 95 0.4 WSW 11 13 6 7 1013.4 - 10.4
22/06:30am 14.2 12.4 13.4 95 0.4 SW 15 24 8 13 1013.0 - 10.4
22/06:00am 14.3 12.2 13.5 95 0.4 SW 17 20 9 11 1012.5 1012.5 10.4
22/05:30am 14.5 13.2 13.7 95 0.4 WSW 13 17 7 9 1012.0 - 10.2
22/05:00am 14.6 13.0 13.8 95 0.4 SW 15 19 8 10 1011.4 - 10.2
22/04:30am 14.8 11.8 13.8 94 0.6 W 22 28 12 15 1010.8 - 10.0
22/04:00am 14.8 11.0 13.7 93 0.6 WNW 26 43 14 23 1010.3 - 10.0
22/03:30am 14.6 11.5 13.5 93 0.6 NW 22 30 12 16 1010.0 - 10.0
22/03:00am 14.7 10.8 13.4 92 0.7 NW 26 35 14 19 1010.5 1010.5 10.0
22/02:46am 14.8 10.2 13.5 92 0.7 NW 30 44 16 24 1010.7 - 9.8
22/02:30am 14.8 8.6 13.7 93 0.6 NW 39 57 21 31 1010.8 - 9.2
22/02:11am 15.0 10.6 14.2 95 0.5 WNW 30 54 16 29 1010.8 - 7.8
22/02:00am 15.2 12.1 14.6 96 0.3 WNW 24 35 13 19 1011.1 - 7.6
22/01:36am 15.9 14.0 15.3 96 0.3 WNW 19 26 10 14 1011.4 - 5.4
22/01:30am 15.9 14.0 15.1 95 0.5 WNW 19 26 10 14 1011.2 - 5.4
22/01:13am 15.9 14.6 14.8 93 0.6 WNW 15 20 8 11 1010.9 - 5.0
22/01:00am 16.0 14.6 14.5 91 0.9 WNW 15 26 8 14 1010.7 - 4.8
22/12:53am 16.1 13.9 14.5 90 0.9 WNW 19 26 10 14 1011.0 - 4.6
22/12:30am 16.2 13.7 14.0 87 1.3 WNW 20 28 11 15 1011.1 - 4.2
22/12:00am 15.9 13.4 13.6 86 1.3 WNW 19 22 10 12 1010.8 1010.8 4.0
 
Date/Time
EST
Temp
°C
App
Temp
°C
Dew
Point
Rel
Hum
%
Delta-T
°C
Wind Press
QNH
hPa
Press
MSL
hPa
Rain
since 9 am
mm
Dir
 
Spd
km/h
Gust
km/h
Spd
kts
Gust
kts
21/11:30pm 15.8 13.6 13.3 85 1.4 N 17 22 9 12 1010.0 - 4.0
21/11:16pm 16.6 13.1 13.5 82 1.7 NNW 24 32 13 17 1010.2 - 4.0
21/11:00pm 17.1 12.3 13.0 77 2.3 WNW 30 50 16 27 1010.6 - 3.6
21/10:55pm 17.8 12.6 12.9 73 2.8 NW 32 50 17 27 1010.8 - 3.4
21/10:30pm 18.3 12.8 12.5 69 3.2 NW 33 48 18 26 1010.3 - 3.0
21/10:12pm 17.8 13.5 13.3 75 2.5 NNW 28 48 15 26 1009.7 - 3.0
21/10:00pm 17.3 13.4 13.2 77 2.3 N 26 35 14 19 1009.5 - 3.0
21/09:30pm 16.9 12.7 13.6 81 1.9 N 28 43 15 23 1009.7 - 3.0
21/09:00pm 17.0 12.6 14.1 83 1.7 N 30 44 16 24 1010.4 1010.4 2.8
21/08:30pm 16.6 12.2 14.1 85 1.4 N 30 46 16 25 1010.0 - 2.8
21/08:27pm 16.6 12.6 14.1 85 1.4 N 28 46 15 25 1009.9 - 2.8
21/08:00pm 17.0 12.9 13.9 82 1.8 N 28 43 15 23 1010.6 - 2.0
21/07:30pm 17.5 14.0 13.4 77 2.3 NNW 24 33 13 18 1010.8 - 1.2
21/07:00pm 17.9 13.5 13.0 73 2.8 NW 28 41 15 22 1011.0 - 1.0
21/06:30pm 20.1 15.1 11.1 56 4.9 NW 28 37 15 20 1010.4 - 0.6
21/06:09pm 20.6 15.4 10.4 52 5.6 NW 28 46 15 25 1010.1 - 0.6
21/06:00pm 19.9 16.9 10.6 55 5.1 NNW 17 22 9 12 1010.1 1010.1 0.6
21/05:30pm 19.9 16.9 10.6 55 5.1 NNW 17 22 9 12 1009.1 - 0.6
21/05:00pm 19.4 16.6 11.4 60 4.4 N 17 22 9 12 1008.8 - 0.6
21/04:30pm 20.1 15.9 11.1 56 4.9 N 24 33 13 18 1008.9 - 0.6
21/04:00pm 20.3 16.5 11.2 56 5.0 N 22 33 12 18 1008.9 - 0.6
21/03:30pm 20.1 16.0 11.3 57 4.9 N 24 39 13 21 1009.0 - 0.6
21/03:00pm 19.8 14.8 10.8 56 4.9 N 28 39 15 21 1009.1 1009.1 0.6
21/02:30pm 19.0 14.3 10.6 58 4.5 N 26 41 14 22 1008.8 - 0.6
21/02:00pm 18.6 14.7 10.7 60 4.3 N 22 32 12 17 1009.1 - 0.6
21/01:30pm 18.3 14.1 11.1 63 3.9 N 24 32 13 17 1010.1 - 0.6
21/01:00pm 18.0 13.5 11.3 65 3.7 N 26 37 14 20 1010.7 - 0.6
21/12:30pm 16.9 13.2 11.4 70 3.0 N 22 32 12 17 1011.0 - 0.6
21/12:00pm 16.2 11.9 10.9 71 2.8 N 24 35 13 19 1012.0 1012.0 0.6
21/11:30am 15.7 12.8 12.3 80 1.9 N 19 30 10 16 1013.0 - 0.6
21/11:00am 14.7 13.8 12.6 87 1.2 N 9 13 5 7 1013.6 - 0.6
21/10:30am 15.0 13.0 12.7 86 1.3 N 15 22 8 12 1014.5 - 0.0
21/10:00am 15.3 13.2 14.8 97 0.3 N 19 28 10 15 1014.0 - 0.0

Other Formats:

Comma delimited format used in spreadsheet applications
http://www.bom.gov.au/fwo/IDV60801/IDV60801.94828.axf

JavaScript Object Notation format (JSON) in row-major order
http://www.bom.gov.au/fwo/IDV60801/IDV60801.94828.json